sensor_id;sensor_type;location;lat;lon;timestamp;P1;durP1;ratioP1;P2;durP2;ratioP2
6414;SDS011;3240;48.790;9.210;2023-02-15T00:02:06;49.63;;;22.93;;
6414;SDS011;3240;48.790;9.210;2023-02-15T00:04:34;48.33;;;22.07;;
6414;SDS011;3240;48.790;9.210;2023-02-15T00:07:08;49.43;;;23.30;;
6414;SDS011;3240;48.790;9.210;2023-02-15T00:09:37;52.33;;;25.13;;
6414;SDS011;3240;48.790;9.210;2023-02-15T00:12:05;58.90;;;25.47;;
6414;SDS011;3240;48.790;9.210;2023-02-15T00:14:33;54.77;;;25.90;;
6414;SDS011;3240;48.790;9.210;2023-02-15T00:17:02;52.10;;;25.00;;
6414;SDS011;3240;48.790;9.210;2023-02-15T00:19:30;52.10;;;24.37;;
6414;SDS011;3240;48.790;9.210;2023-02-15T00:21:58;53.25;;;30.50;;
6414;SDS011;3240;48.790;9.210;2023-02-15T00:24:27;51.67;;;26.70;;
6414;SDS011;3240;48.790;9.210;2023-02-15T00:26:55;55.77;;;26.90;;
6414;SDS011;3240;48.790;9.210;2023-02-15T00:29:23;54.90;;;25.80;;
6414;SDS011;3240;48.790;9.210;2023-02-15T00:31:52;58.53;;;26.20;;
6414;SDS011;3240;48.790;9.210;2023-02-15T00:34:21;61.70;;;27.47;;
6414;SDS011;3240;48.790;9.210;2023-02-15T00:36:49;61.10;;;26.77;;
6414;SDS011;3240;48.790;9.210;2023-02-15T00:39:17;56.97;;;26.87;;
6414;SDS011;3240;48.790;9.210;2023-02-15T00:41:45;55.77;;;27.50;;
6414;SDS011;3240;48.790;9.210;2023-02-15T00:44:13;55.80;;;25.43;;
6414;SDS011;3240;48.790;9.210;2023-02-15T00:46:42;46.97;;;22.73;;
6414;SDS011;3240;48.790;9.210;2023-02-15T00:49:10;47.13;;;24.60;;
6414;SDS011;3240;48.790;9.210;2023-02-15T00:51:38;47.30;;;23.63;;
6414;SDS011;3240;48.790;9.210;2023-02-15T00:54:07;53.43;;;24.47;;
6414;SDS011;3240;48.790;9.210;2023-02-15T00:56:35;43.40;;;20.83;;
6414;SDS011;3240;48.790;9.210;2023-02-15T00:59:03;45.60;;;20.07;;
6414;SDS011;3240;48.790;9.210;2023-02-15T01:01:32;50.80;;;21.87;;
6414;SDS011;3240;48.790;9.210;2023-02-15T01:04:01;49.23;;;21.70;;
6414;SDS011;3240;48.790;9.210;2023-02-15T01:06:28;42.73;;;19.63;;
6414;SDS011;3240;48.790;9.210;2023-02-15T01:08:57;40.10;;;21.03;;
6414;SDS011;3240;48.790;9.210;2023-02-15T01:11:25;45.53;;;20.40;;
6414;SDS011;3240;48.790;9.210;2023-02-15T01:13:55;40.83;;;19.50;;
6414;SDS011;3240;48.790;9.210;2023-02-15T01:16:22;39.10;;;19.90;;
6414;SDS011;3240;48.790;9.210;2023-02-15T01:18:50;48.70;;;22.37;;
6414;SDS011;3240;48.790;9.210;2023-02-15T01:21:19;47.80;;;22.30;;
6414;SDS011;3240;48.790;9.210;2023-02-15T01:23:47;44.53;;;20.77;;
6414;SDS011;3240;48.790;9.210;2023-02-15T01:26:15;40.43;;;18.60;;
6414;SDS011;3240;48.790;9.210;2023-02-15T01:28:44;47.50;;;20.47;;
6414;SDS011;3240;48.790;9.210;2023-02-15T01:31:13;44.42;;;23.65;;
6414;SDS011;3240;48.790;9.210;2023-02-15T01:33:40;45.73;;;22.93;;
6414;SDS011;3240;48.790;9.210;2023-02-15T01:36:08;46.00;;;23.20;;
6414;SDS011;3240;48.790;9.210;2023-02-15T01:38:37;45.73;;;21.90;;
6414;SDS011;3240;48.790;9.210;2023-02-15T01:41:05;52.47;;;22.37;;
6414;SDS011;3240;48.790;9.210;2023-02-15T01:43:40;42.70;;;21.00;;
6414;SDS011;3240;48.790;9.210;2023-02-15T01:46:07;52.93;;;22.20;;
6414;SDS011;3240;48.790;9.210;2023-02-15T01:48:35;49.43;;;23.00;;
6414;SDS011;3240;48.790;9.210;2023-02-15T01:51:03;43.73;;;21.70;;
6414;SDS011;3240;48.790;9.210;2023-02-15T01:53:34;44.63;;;21.97;;
6414;SDS011;3240;48.790;9.210;2023-02-15T01:56:03;48.67;;;21.97;;
6414;SDS011;3240;48.790;9.210;2023-02-15T01:58:28;41.10;;;21.30;;
6414;SDS011;3240;48.790;9.210;2023-02-15T02:00:56;48.10;;;21.40;;
6414;SDS011;3240;48.790;9.210;2023-02-15T02:03:30;45.20;;;20.50;;
6414;SDS011;3240;48.790;9.210;2023-02-15T02:05:55;48.20;;;21.57;;
6414;SDS011;3240;48.790;9.210;2023-02-15T02:08:23;47.47;;;21.70;;
6414;SDS011;3240;48.790;9.210;2023-02-15T02:10:51;48.37;;;22.57;;
6414;SDS011;3240;48.790;9.210;2023-02-15T02:13:19;47.37;;;21.77;;
6414;SDS011;3240;48.790;9.210;2023-02-15T02:15:54;40.87;;;20.10;;
6414;SDS011;3240;48.790;9.210;2023-02-15T02:29:05;44.03;;;20.23;;
6414;SDS011;3240;48.790;9.210;2023-02-15T02:31:38;49.57;;;21.53;;
6414;SDS011;3240;48.790;9.210;2023-02-15T02:34:03;46.07;;;21.50;;
6414;SDS011;3240;48.790;9.210;2023-02-15T02:36:48;44.47;;;19.60;;
6414;SDS011;3240;48.790;9.210;2023-02-15T02:39:18;45.17;;;21.03;;
6414;SDS011;3240;48.790;9.210;2023-02-15T02:44:27;43.43;;;21.03;;
6414;SDS011;3240;48.790;9.210;2023-02-15T02:46:58;47.47;;;21.40;;
6414;SDS011;3240;48.790;9.210;2023-02-15T02:49:30;53.50;;;22.80;;
6414;SDS011;3240;48.790;9.210;2023-02-15T02:51:58;44.20;;;22.13;;
6414;SDS011;3240;48.790;9.210;2023-02-15T02:54:25;46.33;;;21.77;;
6414;SDS011;3240;48.790;9.210;2023-02-15T02:56:53;46.28;;;22.75;;
6414;SDS011;3240;48.790;9.210;2023-02-15T02:59:24;44.93;;;21.50;;
6414;SDS011;3240;48.790;9.210;2023-02-15T03:02:03;46.10;;;20.47;;
6414;SDS011;3240;48.790;9.210;2023-02-15T03:04:32;40.97;;;21.47;;
6414;SDS011;3240;48.790;9.210;2023-02-15T03:07:00;38.53;;;18.73;;
6414;SDS011;3240;48.790;9.210;2023-02-15T03:09:31;47.17;;;20.70;;
6414;SDS011;3240;48.790;9.210;2023-02-15T03:11:58;40.73;;;21.00;;
6414;SDS011;3240;48.790;9.210;2023-02-15T03:14:27;42.30;;;20.00;;
6414;SDS011;3240;48.790;9.210;2023-02-15T03:16:55;45.38;;;25.75;;
6414;SDS011;3240;48.790;9.210;2023-02-15T03:19:26;47.93;;;23.23;;
6414;SDS011;3240;48.790;9.210;2023-02-15T03:21:55;45.30;;;21.03;;
6414;SDS011;3240;48.790;9.210;2023-02-15T03:24:26;45.33;;;21.17;;
6414;SDS011;3240;48.790;9.210;2023-02-15T03:26:53;44.37;;;20.27;;
6414;SDS011;3240;48.790;9.210;2023-02-15T03:29:22;46.77;;;20.43;;
6414;SDS011;3240;48.790;9.210;2023-02-15T03:31:50;43.83;;;19.57;;
6414;SDS011;3240;48.790;9.210;2023-02-15T03:34:17;44.17;;;19.10;;
6414;SDS011;3240;48.790;9.210;2023-02-15T03:36:47;43.73;;;19.00;;
6414;SDS011;3240;48.790;9.210;2023-02-15T03:39:18;44.80;;;20.57;;
6414;SDS011;3240;48.790;9.210;2023-02-15T03:41:47;38.83;;;18.10;;
6414;SDS011;3240;48.790;9.210;2023-02-15T03:44:23;41.50;;;19.40;;
6414;SDS011;3240;48.790;9.210;2023-02-15T03:46:54;40.73;;;19.23;;
6414;SDS011;3240;48.790;9.210;2023-02-15T03:49:22;43.60;;;20.73;;
6414;SDS011;3240;48.790;9.210;2023-02-15T03:51:49;39.33;;;18.83;;
6414;SDS011;3240;48.790;9.210;2023-02-15T03:54:19;36.20;;;17.97;;
6414;SDS011;3240;48.790;9.210;2023-02-15T03:56:46;37.57;;;17.80;;
6414;SDS011;3240;48.790;9.210;2023-02-15T03:59:14;40.30;;;19.20;;
6414;SDS011;3240;48.790;9.210;2023-02-15T04:01:55;42.00;;;19.40;;
6414;SDS011;3240;48.790;9.210;2023-02-15T04:04:43;37.93;;;19.47;;
6414;SDS011;3240;48.790;9.210;2023-02-15T04:07:09;36.33;;;17.73;;
6414;SDS011;3240;48.790;9.210;2023-02-15T04:09:37;41.77;;;19.20;;
6414;SDS011;3240;48.790;9.210;2023-02-15T04:12:11;43.90;;;18.97;;
6414;SDS011;3240;48.790;9.210;2023-02-15T04:14:39;37.07;;;18.60;;
6414;SDS011;3240;48.790;9.210;2023-02-15T04:17:13;44.00;;;19.23;;
6414;SDS011;3240;48.790;9.210;2023-02-15T04:19:41;40.70;;;19.20;;
6414;SDS011;3240;48.790;9.210;2023-02-15T04:22:15;43.83;;;19.47;;
6414;SDS011;3240;48.790;9.210;2023-02-15T04:24:49;39.47;;;19.27;;
6414;SDS011;3240;48.790;9.210;2023-02-15T04:27:23;35.20;;;18.80;;
6414;SDS011;3240;48.790;9.210;2023-02-15T04:29:51;39.80;;;18.53;;
6414;SDS011;3240;48.790;9.210;2023-02-15T04:32:19;38.93;;;18.87;;
6414;SDS011;3240;48.790;9.210;2023-02-15T04:34:47;39.70;;;19.80;;
6414;SDS011;3240;48.790;9.210;2023-02-15T04:37:15;40.10;;;18.53;;
6414;SDS011;3240;48.790;9.210;2023-02-15T04:39:43;39.70;;;19.47;;
6414;SDS011;3240;48.790;9.210;2023-02-15T04:42:11;40.92;;;21.40;;
6414;SDS011;3240;48.790;9.210;2023-02-15T04:44:39;36.87;;;17.80;;
6414;SDS011;3240;48.790;9.210;2023-02-15T04:47:08;39.47;;;17.73;;
6414;SDS011;3240;48.790;9.210;2023-02-15T04:49:36;37.20;;;19.73;;
6414;SDS011;3240;48.790;9.210;2023-02-15T04:52:04;41.23;;;17.60;;
6414;SDS011;3240;48.790;9.210;2023-02-15T04:54:32;37.33;;;18.40;;
6414;SDS011;3240;48.790;9.210;2023-02-15T04:57:00;39.80;;;19.00;;
6414;SDS011;3240;48.790;9.210;2023-02-15T04:59:28;45.97;;;18.77;;
6414;SDS011;3240;48.790;9.210;2023-02-15T05:01:56;41.87;;;18.70;;
6414;SDS011;3240;48.790;9.210;2023-02-15T05:04:24;41.33;;;17.43;;
6414;SDS011;3240;48.790;9.210;2023-02-15T05:06:52;41.67;;;18.80;;
6414;SDS011;3240;48.790;9.210;2023-02-15T05:09:20;33.80;;;17.40;;
6414;SDS011;3240;48.790;9.210;2023-02-15T05:11:48;49.73;;;18.93;;
6414;SDS011;3240;48.790;9.210;2023-02-15T05:14:16;39.50;;;18.30;;
6414;SDS011;3240;48.790;9.210;2023-02-15T05:16:44;37.17;;;17.10;;
6414;SDS011;3240;48.790;9.210;2023-02-15T05:19:13;45.47;;;18.33;;
6414;SDS011;3240;48.790;9.210;2023-02-15T05:21:41;40.07;;;17.40;;
6414;SDS011;3240;48.790;9.210;2023-02-15T05:24:09;45.13;;;18.90;;
6414;SDS011;3240;48.790;9.210;2023-02-15T05:26:43;81.77;;;20.23;;
6414;SDS011;3240;48.790;9.210;2023-02-15T05:29:17;109.13;;;21.23;;
6414;SDS011;3240;48.790;9.210;2023-02-15T05:31:45;86.13;;;22.10;;
6414;SDS011;3240;48.790;9.210;2023-02-15T05:34:13;41.80;;;17.33;;
6414;SDS011;3240;48.790;9.210;2023-02-15T05:36:42;123.27;;;20.93;;
6414;SDS011;3240;48.790;9.210;2023-02-15T05:39:10;60.70;;;20.10;;
6414;SDS011;3240;48.790;9.210;2023-02-15T05:41:38;39.20;;;17.20;;
6414;SDS011;3240;48.790;9.210;2023-02-15T05:44:06;46.67;;;18.17;;
6414;SDS011;3240;48.790;9.210;2023-02-15T05:46:35;54.53;;;19.13;;
6414;SDS011;3240;48.790;9.210;2023-02-15T05:49:03;36.93;;;19.50;;
6414;SDS011;3240;48.790;9.210;2023-02-15T05:51:31;40.43;;;17.10;;
6414;SDS011;3240;48.790;9.210;2023-02-15T05:53:59;39.53;;;18.17;;
6414;SDS011;3240;48.790;9.210;2023-02-15T05:56:27;38.17;;;17.77;;
6414;SDS011;3240;48.790;9.210;2023-02-15T05:58:56;40.43;;;19.27;;
6414;SDS011;3240;48.790;9.210;2023-02-15T06:01:24;62.87;;;17.00;;
6414;SDS011;3240;48.790;9.210;2023-02-15T06:03:52;53.97;;;18.57;;
6414;SDS011;3240;48.790;9.210;2023-02-15T06:06:20;35.80;;;16.40;;
6414;SDS011;3240;48.790;9.210;2023-02-15T06:08:48;52.20;;;19.50;;
6414;SDS011;3240;48.790;9.210;2023-02-15T06:11:17;46.10;;;18.57;;
6414;SDS011;3240;48.790;9.210;2023-02-15T06:13:45;44.33;;;17.63;;
6414;SDS011;3240;48.790;9.210;2023-02-15T06:16:13;34.80;;;17.00;;
6414;SDS011;3240;48.790;9.210;2023-02-15T06:18:41;82.30;;;25.27;;
6414;SDS011;3240;48.790;9.210;2023-02-15T06:21:10;233.03;;;25.57;;
6414;SDS011;3240;48.790;9.210;2023-02-15T06:23:38;159.27;;;24.77;;
6414;SDS011;3240;48.790;9.210;2023-02-15T06:26:06;89.33;;;20.10;;
6414;SDS011;3240;48.790;9.210;2023-02-15T06:28:34;96.20;;;19.63;;
6414;SDS011;3240;48.790;9.210;2023-02-15T06:31:03;160.73;;;20.93;;
6414;SDS011;3240;48.790;9.210;2023-02-15T06:33:31;108.80;;;22.67;;
6414;SDS011;3240;48.790;9.210;2023-02-15T06:36:00;101.27;;;20.00;;
6414;SDS011;3240;48.790;9.210;2023-02-15T06:38:28;132.17;;;21.20;;
6414;SDS011;3240;48.790;9.210;2023-02-15T06:40:56;123.17;;;22.67;;
6414;SDS011;3240;48.790;9.210;2023-02-15T06:43:24;137.03;;;22.67;;
6414;SDS011;3240;48.790;9.210;2023-02-15T06:45:53;58.97;;;20.67;;
6414;SDS011;3240;48.790;9.210;2023-02-15T06:48:21;99.77;;;22.07;;
6414;SDS011;3240;48.790;9.210;2023-02-15T06:50:49;85.70;;;21.17;;
6414;SDS011;3240;48.790;9.210;2023-02-15T06:53:17;45.57;;;18.73;;
6414;SDS011;3240;48.790;9.210;2023-02-15T06:55:46;62.77;;;22.93;;
6414;SDS011;3240;48.790;9.210;2023-02-15T06:58:14;59.33;;;19.70;;
6414;SDS011;3240;48.790;9.210;2023-02-15T07:00:42;45.23;;;16.57;;
6414;SDS011;3240;48.790;9.210;2023-02-15T07:03:12;43.70;;;19.17;;
6414;SDS011;3240;48.790;9.210;2023-02-15T07:05:38;42.27;;;17.73;;
6414;SDS011;3240;48.790;9.210;2023-02-15T07:08:07;41.80;;;17.70;;
6414;SDS011;3240;48.790;9.210;2023-02-15T07:10:35;40.33;;;16.37;;
6414;SDS011;3240;48.790;9.210;2023-02-15T07:13:03;44.93;;;17.10;;
6414;SDS011;3240;48.790;9.210;2023-02-15T07:15:31;52.30;;;17.57;;
6414;SDS011;3240;48.790;9.210;2023-02-15T07:18:00;62.70;;;17.10;;
6414;SDS011;3240;48.790;9.210;2023-02-15T07:20:28;35.27;;;16.23;;
6414;SDS011;3240;48.790;9.210;2023-02-15T07:22:56;44.67;;;16.03;;
6414;SDS011;3240;48.790;9.210;2023-02-15T07:25:24;55.60;;;16.60;;
6414;SDS011;3240;48.790;9.210;2023-02-15T07:27:56;31.60;;;16.03;;
6414;SDS011;3240;48.790;9.210;2023-02-15T07:30:24;57.87;;;16.33;;
6414;SDS011;3240;48.790;9.210;2023-02-15T07:32:55;61.50;;;17.70;;
6414;SDS011;3240;48.790;9.210;2023-02-15T07:35:28;47.20;;;17.10;;
6414;SDS011;3240;48.790;9.210;2023-02-15T07:37:56;43.10;;;17.70;;
6414;SDS011;3240;48.790;9.210;2023-02-15T07:40:25;55.17;;;18.17;;
6414;SDS011;3240;48.790;9.210;2023-02-15T07:42:53;39.30;;;15.90;;
6414;SDS011;3240;48.790;9.210;2023-02-15T07:45:21;47.30;;;17.70;;
6414;SDS011;3240;48.790;9.210;2023-02-15T07:47:50;63.77;;;22.30;;
6414;SDS011;3240;48.790;9.210;2023-02-15T07:50:18;50.93;;;19.33;;
6414;SDS011;3240;48.790;9.210;2023-02-15T07:52:46;52.00;;;18.77;;
6414;SDS011;3240;48.790;9.210;2023-02-15T07:55:14;48.00;;;18.17;;
6414;SDS011;3240;48.790;9.210;2023-02-15T07:57:43;50.23;;;17.10;;
6414;SDS011;3240;48.790;9.210;2023-02-15T08:00:12;36.50;;;17.20;;
6414;SDS011;3240;48.790;9.210;2023-02-15T08:02:41;31.77;;;16.00;;
6414;SDS011;3240;48.790;9.210;2023-02-15T08:05:08;40.70;;;16.80;;
6414;SDS011;3240;48.790;9.210;2023-02-15T08:07:37;42.53;;;18.00;;
6414;SDS011;3240;48.790;9.210;2023-02-15T08:10:05;43.90;;;17.93;;
6414;SDS011;3240;48.790;9.210;2023-02-15T08:12:34;56.63;;;16.93;;
6414;SDS011;3240;48.790;9.210;2023-02-15T08:15:02;72.63;;;18.27;;
6414;SDS011;3240;48.790;9.210;2023-02-15T08:17:31;39.03;;;18.07;;
6414;SDS011;3240;48.790;9.210;2023-02-15T08:19:59;39.60;;;17.20;;
6414;SDS011;3240;48.790;9.210;2023-02-15T08:22:27;37.40;;;17.73;;
6414;SDS011;3240;48.790;9.210;2023-02-15T08:24:56;34.57;;;16.57;;
6414;SDS011;3240;48.790;9.210;2023-02-15T08:27:24;41.87;;;16.30;;
6414;SDS011;3240;48.790;9.210;2023-02-15T08:29:52;61.60;;;18.37;;
6414;SDS011;3240;48.790;9.210;2023-02-15T08:32:21;38.80;;;17.50;;
6414;SDS011;3240;48.790;9.210;2023-02-15T08:34:49;36.67;;;18.90;;
6414;SDS011;3240;48.790;9.210;2023-02-15T08:37:17;42.33;;;17.60;;
6414;SDS011;3240;48.790;9.210;2023-02-15T08:39:46;38.33;;;18.23;;
6414;SDS011;3240;48.790;9.210;2023-02-15T08:42:14;38.77;;;16.77;;
6414;SDS011;3240;48.790;9.210;2023-02-15T08:44:42;38.33;;;18.53;;
6414;SDS011;3240;48.790;9.210;2023-02-15T08:47:11;35.50;;;17.47;;
6414;SDS011;3240;48.790;9.210;2023-02-15T08:49:39;37.90;;;18.63;;
6414;SDS011;3240;48.790;9.210;2023-02-15T08:52:07;36.23;;;17.43;;
6414;SDS011;3240;48.790;9.210;2023-02-15T08:54:36;39.37;;;18.50;;
6414;SDS011;3240;48.790;9.210;2023-02-15T08:57:04;36.60;;;16.83;;
6414;SDS011;3240;48.790;9.210;2023-02-15T08:59:32;38.08;;;21.98;;
6414;SDS011;3240;48.790;9.210;2023-02-15T09:02:01;40.10;;;18.57;;
6414;SDS011;3240;48.790;9.210;2023-02-15T09:04:29;33.23;;;17.07;;
6414;SDS011;3240;48.790;9.210;2023-02-15T09:06:57;33.87;;;17.90;;
6414;SDS011;3240;48.790;9.210;2023-02-15T09:09:26;36.93;;;17.97;;
6414;SDS011;3240;48.790;9.210;2023-02-15T09:11:54;42.30;;;18.37;;
6414;SDS011;3240;48.790;9.210;2023-02-15T09:14:22;34.80;;;17.60;;
6414;SDS011;3240;48.790;9.210;2023-02-15T09:16:51;40.10;;;18.10;;
6414;SDS011;3240;48.790;9.210;2023-02-15T09:19:20;48.10;;;19.50;;
6414;SDS011;3240;48.790;9.210;2023-02-15T09:21:48;43.93;;;18.50;;
6414;SDS011;3240;48.790;9.210;2023-02-15T09:24:16;40.67;;;20.93;;
6414;SDS011;3240;48.790;9.210;2023-02-15T09:26:45;39.13;;;18.20;;
6414;SDS011;3240;48.790;9.210;2023-02-15T09:29:13;35.83;;;18.97;;
6414;SDS011;3240;48.790;9.210;2023-02-15T09:31:43;39.93;;;19.10;;
6414;SDS011;3240;48.790;9.210;2023-02-15T09:34:13;36.73;;;18.10;;
6414;SDS011;3240;48.790;9.210;2023-02-15T09:36:41;40.60;;;18.27;;
6414;SDS011;3240;48.790;9.210;2023-02-15T09:39:11;34.80;;;17.90;;
6414;SDS011;3240;48.790;9.210;2023-02-15T09:41:46;37.70;;;19.07;;
6414;SDS011;3240;48.790;9.210;2023-02-15T09:44:12;32.20;;;17.57;;
6414;SDS011;3240;48.790;9.210;2023-02-15T09:46:44;38.37;;;18.30;;
6414;SDS011;3240;48.790;9.210;2023-02-15T09:49:14;40.03;;;20.00;;
6414;SDS011;3240;48.790;9.210;2023-02-15T09:51:45;35.80;;;19.07;;
6414;SDS011;3240;48.790;9.210;2023-02-15T09:54:14;37.03;;;19.40;;
6414;SDS011;3240;48.790;9.210;2023-02-15T09:56:39;47.03;;;19.17;;
6414;SDS011;3240;48.790;9.210;2023-02-15T09:59:11;32.20;;;17.43;;
6414;SDS011;3240;48.790;9.210;2023-02-15T10:04:20;32.60;;;17.27;;
6414;SDS011;3240;48.790;9.210;2023-02-15T10:12:14;37.55;;;20.83;;
6414;SDS011;3240;48.790;9.210;2023-02-15T10:14:50;34.27;;;18.87;;
6414;SDS011;3240;48.790;9.210;2023-02-15T10:17:19;30.47;;;17.70;;
6414;SDS011;3240;48.790;9.210;2023-02-15T10:19:51;38.87;;;17.93;;
6414;SDS011;3240;48.790;9.210;2023-02-15T10:22:20;32.40;;;17.73;;
6414;SDS011;3240;48.790;9.210;2023-02-15T10:24:55;35.20;;;18.40;;
6414;SDS011;3240;48.790;9.210;2023-02-15T10:27:20;37.17;;;19.37;;
6414;SDS011;3240;48.790;9.210;2023-02-15T10:29:52;34.27;;;18.97;;
6414;SDS011;3240;48.790;9.210;2023-02-15T10:32:21;39.83;;;20.70;;
6414;SDS011;3240;48.790;9.210;2023-02-15T10:34:52;32.60;;;18.00;;
6414;SDS011;3240;48.790;9.210;2023-02-15T10:37:24;31.73;;;18.97;;
6414;SDS011;3240;48.790;9.210;2023-02-15T10:43:50;35.20;;;17.47;;
6414;SDS011;3240;48.790;9.210;2023-02-15T10:45:29;36.60;;;19.03;;
6414;SDS011;3240;48.790;9.210;2023-02-15T10:53:13;33.93;;;18.37;;
6414;SDS011;3240;48.790;9.210;2023-02-15T11:01:25;37.07;;;19.80;;
6414;SDS011;3240;48.790;9.210;2023-02-15T11:04:27;32.60;;;18.30;;
6414;SDS011;3240;48.790;9.210;2023-02-15T11:06:50;37.97;;;18.70;;
6414;SDS011;3240;48.790;9.210;2023-02-15T11:09:21;33.13;;;19.73;;
6414;SDS011;3240;48.790;9.210;2023-02-15T11:11:49;38.53;;;19.95;;
6414;SDS011;3240;48.790;9.210;2023-02-15T11:17:08;37.07;;;19.27;;
6414;SDS011;3240;48.790;9.210;2023-02-15T11:19:47;36.53;;;21.17;;
6414;SDS011;3240;48.790;9.210;2023-02-15T11:22:13;39.13;;;19.90;;
6414;SDS011;3240;48.790;9.210;2023-02-15T11:24:45;37.33;;;20.93;;
6414;SDS011;3240;48.790;9.210;2023-02-15T11:27:26;39.37;;;20.10;;
6414;SDS011;3240;48.790;9.210;2023-02-15T11:30:01;33.70;;;19.03;;
6414;SDS011;3240;48.790;9.210;2023-02-15T11:32:37;51.90;;;21.90;;
6414;SDS011;3240;48.790;9.210;2023-02-15T11:43:34;37.27;;;19.90;;
6414;SDS011;3240;48.790;9.210;2023-02-15T11:45:59;34.40;;;18.73;;
6414;SDS011;3240;48.790;9.210;2023-02-15T11:48:28;32.10;;;19.60;;
6414;SDS011;3240;48.790;9.210;2023-02-15T11:50:56;30.13;;;18.77;;
6414;SDS011;3240;48.790;9.210;2023-02-15T11:53:24;38.77;;;18.50;;
6414;SDS011;3240;48.790;9.210;2023-02-15T11:55:53;32.43;;;19.20;;
6414;SDS011;3240;48.790;9.210;2023-02-15T11:58:25;32.30;;;19.10;;
6414;SDS011;3240;48.790;9.210;2023-02-15T12:00:52;34.60;;;20.57;;
6414;SDS011;3240;48.790;9.210;2023-02-15T12:03:22;33.50;;;18.90;;
6414;SDS011;3240;48.790;9.210;2023-02-15T12:05:50;35.60;;;20.33;;
6414;SDS011;3240;48.790;9.210;2023-02-15T12:08:19;37.80;;;19.13;;
6414;SDS011;3240;48.790;9.210;2023-02-15T12:13:35;41.50;;;22.00;;
6414;SDS011;3240;48.790;9.210;2023-02-15T12:16:05;37.73;;;21.80;;
6414;SDS011;3240;48.790;9.210;2023-02-15T12:18:38;33.60;;;20.80;;
6414;SDS011;3240;48.790;9.210;2023-02-15T12:21:08;34.13;;;18.83;;
6414;SDS011;3240;48.790;9.210;2023-02-15T12:23:39;35.90;;;20.63;;
6414;SDS011;3240;48.790;9.210;2023-02-15T12:26:04;34.07;;;20.50;;
6414;SDS011;3240;48.790;9.210;2023-02-15T12:28:34;37.50;;;21.30;;
6414;SDS011;3240;48.790;9.210;2023-02-15T12:31:03;37.20;;;20.13;;
6414;SDS011;3240;48.790;9.210;2023-02-15T12:33:31;36.33;;;20.30;;
6414;SDS011;3240;48.790;9.210;2023-02-15T12:36:01;33.85;;;21.25;;
6414;SDS011;3240;48.790;9.210;2023-02-15T12:38:28;35.87;;;20.40;;
6414;SDS011;3240;48.790;9.210;2023-02-15T12:40:57;33.33;;;19.90;;
6414;SDS011;3240;48.790;9.210;2023-02-15T12:43:25;41.47;;;20.23;;
6414;SDS011;3240;48.790;9.210;2023-02-15T12:45:53;44.77;;;20.97;;
6414;SDS011;3240;48.790;9.210;2023-02-15T12:48:21;35.60;;;19.30;;
6414;SDS011;3240;48.790;9.210;2023-02-15T12:50:50;32.63;;;18.73;;
6414;SDS011;3240;48.790;9.210;2023-02-15T12:53:19;37.70;;;19.50;;
6414;SDS011;3240;48.790;9.210;2023-02-15T12:55:50;33.60;;;20.05;;
6414;SDS011;3240;48.790;9.210;2023-02-15T12:58:18;33.53;;;19.60;;
6414;SDS011;3240;48.790;9.210;2023-02-15T13:00:46;29.30;;;18.83;;
6414;SDS011;3240;48.790;9.210;2023-02-15T13:03:16;33.40;;;20.03;;
6414;SDS011;3240;48.790;9.210;2023-02-15T13:05:44;32.07;;;19.43;;
6414;SDS011;3240;48.790;9.210;2023-02-15T13:08:14;31.83;;;18.80;;
6414;SDS011;3240;48.790;9.210;2023-02-15T13:10:52;37.10;;;20.40;;
6414;SDS011;3240;48.790;9.210;2023-02-15T13:13:11;31.20;;;20.03;;
6414;SDS011;3240;48.790;9.210;2023-02-15T13:15:40;29.73;;;19.73;;
6414;SDS011;3240;48.790;9.210;2023-02-15T13:18:10;30.30;;;20.47;;
6414;SDS011;3240;48.790;9.210;2023-02-15T13:20:36;28.50;;;18.97;;
6414;SDS011;3240;48.790;9.210;2023-02-15T13:23:05;33.97;;;18.47;;
6414;SDS011;3240;48.790;9.210;2023-02-15T13:25:35;26.80;;;17.20;;
6414;SDS011;3240;48.790;9.210;2023-02-15T13:28:01;30.87;;;17.93;;
6414;SDS011;3240;48.790;9.210;2023-02-15T13:30:32;31.40;;;19.87;;
6414;SDS011;3240;48.790;9.210;2023-02-15T13:33:00;30.43;;;19.87;;
6414;SDS011;3240;48.790;9.210;2023-02-15T13:35:28;30.57;;;19.80;;
6414;SDS011;3240;48.790;9.210;2023-02-15T13:37:59;29.50;;;18.97;;
6414;SDS011;3240;48.790;9.210;2023-02-15T13:40:25;35.13;;;20.33;;
6414;SDS011;3240;48.790;9.210;2023-02-15T13:42:55;32.23;;;19.40;;
6414;SDS011;3240;48.790;9.210;2023-02-15T13:45:30;35.33;;;21.10;;
6414;SDS011;3240;48.790;9.210;2023-02-15T13:47:59;27.60;;;19.47;;
6414;SDS011;3240;48.790;9.210;2023-02-15T13:50:31;28.53;;;19.30;;
6414;SDS011;3240;48.790;9.210;2023-02-15T13:53:32;31.00;;;19.70;;
6414;SDS011;3240;48.790;9.210;2023-02-15T13:55:50;33.50;;;19.30;;
6414;SDS011;3240;48.790;9.210;2023-02-15T13:58:26;30.40;;;19.23;;
6414;SDS011;3240;48.790;9.210;2023-02-15T14:01:28;31.47;;;19.63;;
6414;SDS011;3240;48.790;9.210;2023-02-15T14:03:41;32.13;;;20.90;;
6414;SDS011;3240;48.790;9.210;2023-02-15T14:06:20;28.87;;;19.20;;
6414;SDS011;3240;48.790;9.210;2023-02-15T14:08:54;32.10;;;19.80;;
6414;SDS011;3240;48.790;9.210;2023-02-15T14:11:23;29.17;;;19.77;;
6414;SDS011;3240;48.790;9.210;2023-02-15T14:13:55;28.63;;;18.50;;
6414;SDS011;3240;48.790;9.210;2023-02-15T14:16:26;25.10;;;18.40;;
6414;SDS011;3240;48.790;9.210;2023-02-15T14:18:55;27.00;;;18.40;;
6414;SDS011;3240;48.790;9.210;2023-02-15T14:21:27;27.47;;;18.63;;
6414;SDS011;3240;48.790;9.210;2023-02-15T14:24:01;29.37;;;17.90;;
6414;SDS011;3240;48.790;9.210;2023-02-15T14:26:35;25.17;;;18.90;;
6414;SDS011;3240;48.790;9.210;2023-02-15T14:31:47;25.93;;;18.40;;
6414;SDS011;3240;48.790;9.210;2023-02-15T14:34:18;30.43;;;18.40;;
6414;SDS011;3240;48.790;9.210;2023-02-15T14:36:42;26.27;;;17.03;;
6414;SDS011;3240;48.790;9.210;2023-02-15T14:39:16;29.90;;;18.00;;
6414;SDS011;3240;48.790;9.210;2023-02-15T14:41:42;25.93;;;17.80;;
6414;SDS011;3240;48.790;9.210;2023-02-15T14:44:11;29.17;;;19.00;;
6414;SDS011;3240;48.790;9.210;2023-02-15T14:46:53;24.00;;;17.47;;
6414;SDS011;3240;48.790;9.210;2023-02-15T14:49:21;28.13;;;19.47;;
6414;SDS011;3240;48.790;9.210;2023-02-15T14:51:56;30.10;;;18.53;;
6414;SDS011;3240;48.790;9.210;2023-02-15T14:57:23;29.13;;;18.10;;
6414;SDS011;3240;48.790;9.210;2023-02-15T14:59:56;26.23;;;18.77;;
6414;SDS011;3240;48.790;9.210;2023-02-15T15:05:18;27.03;;;19.27;;
6414;SDS011;3240;48.790;9.210;2023-02-15T15:07:49;29.70;;;19.13;;
6414;SDS011;3240;48.790;9.210;2023-02-15T15:12:59;28.43;;;18.43;;
6414;SDS011;3240;48.790;9.210;2023-02-15T15:15:39;30.87;;;18.40;;
6414;SDS011;3240;48.790;9.210;2023-02-15T15:18:06;30.40;;;19.70;;
6414;SDS011;3240;48.790;9.210;2023-02-15T15:20:38;35.90;;;19.97;;
6414;SDS011;3240;48.790;9.210;2023-02-15T15:25:40;31.83;;;19.30;;
6414;SDS011;3240;48.790;9.210;2023-02-15T15:28:08;31.60;;;19.37;;
6414;SDS011;3240;48.790;9.210;2023-02-15T15:33:25;29.37;;;19.30;;
6414;SDS011;3240;48.790;9.210;2023-02-15T15:35:57;28.67;;;18.43;;
6414;SDS011;3240;48.790;9.210;2023-02-15T15:38:23;27.97;;;18.17;;
6414;SDS011;3240;48.790;9.210;2023-02-15T15:46:12;28.12;;;18.27;;
6414;SDS011;3240;48.790;9.210;2023-02-15T15:48:41;31.70;;;17.60;;
6414;SDS011;3240;48.790;9.210;2023-02-15T15:51:11;26.30;;;16.13;;
6414;SDS011;3240;48.790;9.210;2023-02-15T15:53:40;31.73;;;19.70;;
6414;SDS011;3240;48.790;9.210;2023-02-15T15:56:08;30.60;;;17.43;;
6414;SDS011;3240;48.790;9.210;2023-02-15T15:58:35;29.47;;;19.23;;
6414;SDS011;3240;48.790;9.210;2023-02-15T16:01:04;30.20;;;18.17;;
6414;SDS011;3240;48.790;9.210;2023-02-15T16:03:32;31.27;;;17.63;;
6414;SDS011;3240;48.790;9.210;2023-02-15T16:06:00;32.00;;;17.27;;
6414;SDS011;3240;48.790;9.210;2023-02-15T16:08:31;30.17;;;16.77;;
6414;SDS011;3240;48.790;9.210;2023-02-15T16:10:58;28.27;;;16.37;;
6414;SDS011;3240;48.790;9.210;2023-02-15T16:13:26;26.53;;;17.23;;